Latest Coastal Weather Observations for Pirlangimpi (Garden Point)

IDD60701

Issued at 5:31 am CST Saturday 28 May 2016 (issued every 10 minutes, with the page automatically refreshed every 10 minutes)

About coastal observations | Map of coastal stations | Coastal observations for NT | Marine services | Other Formats
Station Details ID: 014142 Name: PIRLANGIMPI AIRPORT Lat: -11.40 Lon: 130.42 Height: 18.3 m
Data from the previous 72 hours. | See also: Recent months at Pirlangimpi (Garden Point)
Date/Time
CST
Temp

°C
Wind Pressure Rain
since 9am
mm
Weather Cloud Vis
km
Sea
Height
m
Swell
Dir
 
Speed
knots
Gust
knots
hPa Trend Height
m
Period
s
Dir
28/05:30am 24.4 CALM 0 0 1012.6 - 0.8 - - - - - - -
28/05:00am 24.4 CALM 0 0 1012.5 - 0.8 - - - - - - -
28/04:30am 24.4 CALM 0 0 1012.4 - 0.8 - - - - - - -
28/04:00am 24.3 CALM 0 0 1012.2 - 0.8 - - - - - - -
28/03:30am 24.2 CALM 0 0 1012.2 - 0.8 - - - - - - -
28/03:00am 24.1 CALM 0 0 1012.2 - 0.8 - - - - - - -
28/02:30am 24.1 CALM 0 0 1012.3 - 0.8 - - - - - - -
28/02:00am 24.1 CALM 0 0 1012.5 - 0.8 - - - - - - -
28/01:30am 24.1 CALM 0 0 1012.5 - 0.8 - - - - - - -
28/01:00am 24.2 CALM 0 0 1012.5 - 0.6 - - - - - - -
28/12:30am 24.3 CALM 0 0 1012.5 - 0.6 - - - - - - -
28/12:00am 24.6 CALM 0 0 1012.6 - 0.6 - - - - - - -
 
Date/Time
CST
Temp

°C
Wind Pressure Rain
since 9am
mm
Weather Cloud Vis
km
Sea
Height
m
Swell
Dir
 
Speed
knots
Gust
knots
hPa Trend Height
m
Period
s
Dir
27/11:30pm 24.6 CALM 0 0 1012.8 - 0.6 - - - - - - -
27/11:00pm 24.6 CALM 0 0 1012.8 - 0.6 - - - - - - -
27/10:30pm 24.6 CALM 0 0 1012.8 - 0.6 - - - - - - -
27/10:00pm 24.9 CALM 0 0 1012.7 - 0.6 - - - - - - -
27/09:30pm 24.8 CALM 0 0 1012.9 - 0.6 - - - - - - -
27/09:00pm 25.2 NE 1 2 1012.7 - 0.6 - - - - - - -
27/08:30pm 25.8 NNE 2 3 1012.5 - 0.6 - - - - - - -
27/08:00pm 26.0 NE 3 5 1012.5 - 0.6 - - - - - - -
27/07:30pm 25.3 ENE 1 1 1012.2 - 0.6 - - - - - - -
27/07:00pm 24.6 CALM 0 1 1011.8 - 0.6 - - - - - - -
27/06:30pm 24.8 NNW 2 4 1011.7 - 0.6 - - - - - - -
27/06:00pm 25.2 N 4 7 1011.2 - 0.6 Recent precip. - - - - - -
27/05:30pm 26.6 ENE 8 12 1011.3 - 0.4 - - - - - - -
27/05:00pm 31.0 N 3 7 1011.0 - 0.0 - - - - - - -
27/04:30pm 32.5 NW 5 9 1010.7 - 0.0 - - - - - - -
27/04:00pm 32.2 NW 5 9 1010.8 - 0.0 - - - - - - -
27/03:30pm 32.4 WSW 5 10 1010.9 - 0.0 - - - - - - -
27/03:00pm 33.0 WSW 4 6 1011.3 - 0.0 - - - - - - -
27/02:30pm 33.3 SSW 5 7 1011.7 - 0.0 - - - - - - -
27/02:00pm 33.5 SSW 4 6 1012.2 - 0.0 - - - - - - -
27/01:30pm 32.7 SW 6 8 1012.7 - 0.0 - - - - - - -
27/01:00pm 32.8 SSW 4 7 1012.9 - 0.0 - - - - - - -
27/12:30pm 32.2 SW 3 5 1013.6 - 0.0 - - - - - - -
27/12:00pm 31.6 SSW 4 7 1013.9 - 0.0 - - - - - - -
27/11:30am 31.0 SSW 5 7 1014.3 - 0.0 - - - - - - -
27/11:00am 30.8 SSW 5 7 1014.6 - 0.0 - - - - - - -
27/10:30am 30.0 SSW 4 5 1014.8 - 0.0 - - - - - - -
27/10:00am 29.4 SSW 5 7 1014.8 - 0.0 - - - - - - -
27/09:30am 28.8 SSW 4 6 1014.8 - 0.0 - - - - - - -
27/09:00am 27.9 SSE 2 3 1014.5 - 0.0 - - - - - - -
27/08:30am 26.7 CALM 0 1 1014.1 - 0.0 - - - - - - -
27/08:00am 25.0 CALM 0 0 1013.7 - 0.0 - - - - - - -
27/07:30am 24.4 CALM 0 0 1013.3 - 0.0 - - - - - - -
27/07:00am 24.1 CALM 0 0 1013.2 - 0.0 - - - - - - -
27/06:30am 23.8 CALM 0 0 1013.0 - 0.0 - - - - - - -
27/06:00am 23.9 CALM 0 0 1012.8 - 0.0 - - - - - - -
27/05:30am 24.2 CALM 0 0 1012.6 - 0.0 - - - - - - -
27/05:00am 24.3 CALM 0 0 1012.5 - 0.0 - - - - - - -
27/04:30am 24.2 CALM 0 0 1012.5 - 0.0 - - - - - - -
27/04:00am 24.5 SE 2 2 1012.5 - 0.0 - - - - - - -
27/03:30am 24.1 CALM 0 0 1012.6 - 0.0 - - - - - - -
27/03:00am 24.1 CALM 0 0 1012.5 - 0.0 - - - - - - -
27/02:30am 24.1 CALM 0 0 1012.6 - 0.0 - - - - - - -
27/02:00am 24.2 CALM 0 0 1012.8 - 0.0 - - - - - - -
27/01:30am 24.1 CALM 0 0 1012.9 - 0.0 - - - - - - -
27/01:00am 24.0 CALM 0 0 1013.0 - 0.0 - - - - - - -
27/12:30am 24.3 CALM 0 0 1013.1 - 0.0 - - - - - - -
27/12:00am 24.6 CALM 0 0 1013.1 - 0.0 - - - - - - -
 
Date/Time
CST
Temp

°C
Wind Pressure Rain
since 9am
mm
Weather Cloud Vis
km
Sea
Height
m
Swell
Dir
 
Speed
knots
Gust
knots
hPa Trend Height
m
Period
s
Dir
26/11:30pm 24.6 CALM 0 0 1013.1 - 0.0 - - - - - - -
26/11:00pm 24.6 CALM 0 0 1013.2 - 0.0 - - - - - - -
26/10:30pm 24.7 CALM 0 0 1013.3 - 0.0 - - - - - - -
26/10:00pm 25.1 NNE 1 1 1013.3 - 0.0 - - - - - - -
26/09:30pm 25.4 NE 1 2 1013.3 - 0.0 - - - - - - -
26/09:00pm 25.8 CALM 0 0 1013.0 - 0.0 - - - - - - -
26/08:30pm 26.1 CALM 0 1 1012.8 - 0.0 - - - - - - -
26/08:00pm 26.4 NNE 1 3 1012.4 - 0.0 - - - - - - -
26/07:30pm 26.6 N 1 2 1012.0 - 0.0 - - - - - - -
26/07:00pm 27.3 N 2 4 1011.7 - 0.0 - - - - - - -
26/06:30pm 27.6 NNE 2 4 1011.5 - 0.0 - - - - - - -
26/06:00pm 28.4 NE 2 4 1011.4 - 0.0 - - - - - - -
26/05:30pm 29.3 NNE 3 5 1011.1 - 0.0 - - - - - - -
26/05:00pm 29.9 NNW 3 5 1010.9 - 0.0 - - - - - - -
26/04:30pm 30.3 NNW 3 5 1010.9 - 0.0 - - - - - - -
26/04:00pm 31.1 NW 4 8 1011.0 - 0.0 - - - - - - -
26/03:30pm 30.9 NW 6 10 1010.9 - 0.0 - - - - - - -
26/03:00pm 33.1 NW 3 6 1011.0 - 0.0 - - - - - - -
26/02:30pm 33.5 WNW 3 6 1011.2 - 0.0 - - - - - - -
26/02:00pm 33.1 W 3 7 1011.4 - 0.0 - - - - - - -
26/01:30pm 32.9 W 3 5 1011.9 - 0.0 - - - - - - -
26/01:00pm 31.9 SSW 4 7 1012.5 - 0.0 - - - - - - -
26/12:30pm 30.7 SSW 5 7 1013.2 - 0.0 - - - - - - -
26/12:00pm 31.7 SSW 3 6 1013.5 - 0.0 - - - - - - -
26/11:30am 31.0 SSW 5 7 1013.9 - 0.0 - - - - - - -
26/11:00am 30.3 SSW 4 6 1014.2 - 0.0 - - - - - - -
26/10:30am 30.3 SSW 4 6 1014.4 - 0.0 - - - - - - -
26/10:00am 30.4 SW 2 4 1014.5 - 0.0 - - - - - - -
26/09:30am 29.8 S 1 3 1014.5 - 0.0 - - - - - - -
26/09:00am 28.6 SE 1 2 1014.3 - 0.0 - - - - - - -
26/08:30am 27.3 CALM 0 2 1014.0 - 0.0 - - - - - - -
26/08:00am 24.4 CALM 0 2 1013.7 - 0.0 - - - - - - -
26/07:30am 23.5 CALM 0 0 1013.4 - 0.0 - - - - - - -
26/07:00am 23.6 CALM 0 0 1013.0 - 0.0 - - - - - - -
26/06:30am 23.4 CALM 0 0 1012.7 - 0.0 - - - - - - -
26/06:00am 23.3 CALM 0 0 1012.3 - 0.0 - - - - - - -
26/05:30am 23.5 ENE 1 2 1012.0 - 0.0 - - - - - - -
26/05:00am 23.9 CALM 0 0 1012.1 - 0.0 - - - - - - -
26/04:30am 24.1 CALM 0 0 1011.9 - 0.0 - - - - - - -
26/04:00am 23.9 CALM 0 0 1011.9 - 0.0 - - - - - - -
26/03:30am 24.1 SE 1 2 1011.9 - 0.0 - - - - - - -
26/03:00am 24.1 ENE 1 1 1012.1 - 0.0 - - - - - - -
26/02:30am 24.0 CALM 0 1 1012.4 - 0.0 - - - - - - -
26/02:00am 24.3 CALM 0 0 1012.4 - 0.0 - - - - - - -
26/01:30am 24.4 CALM 0 0 1012.4 - 0.0 - - - - - - -
26/01:00am 24.5 NE 1 2 1012.5 - 0.0 - - - - - - -
26/12:30am 24.8 NE 1 3 1012.8 - 0.0 - - - - - - -
26/12:00am 24.5 NE 1 2 1012.8 - 0.0 - - - - - - -
 
Date/Time
CST
Temp

°C
Wind Pressure Rain
since 9am
mm
Weather Cloud Vis
km
Sea
Height
m
Swell
Dir
 
Speed
knots
Gust
knots
hPa Trend Height
m
Period
s
Dir
25/11:30pm 24.7 NE 1 2 1012.8 - 0.0 - - - - - - -
25/11:00pm 25.1 CALM 0 1 1013.0 - 0.0 - - - - - - -
25/10:30pm 25.6 CALM 0 0 1012.9 - 0.0 - - - - - - -
25/10:00pm 25.8 NE 2 2 1012.9 - 0.0 - - - - - - -
25/09:30pm 26.7 ESE 1 3 1012.8 - 0.0 - - - - - - -
25/09:00pm 27.3 ESE 3 5 1012.5 - 0.0 - - - - - - -
25/08:30pm 27.8 CALM 0 0 1012.3 - 0.0 - - - - - - -
25/08:00pm 27.9 CALM 0 0 1011.9 - 0.0 - - - - - - -
25/07:30pm 28.6 CALM 0 0 1011.6 - 0.0 - - - - - - -
25/07:00pm 28.9 CALM 0 0 1011.3 - 0.0 - - - - - - -
25/06:30pm 29.3 CALM 0 0 1011.2 - 0.0 - - - - - - -
25/06:00pm 30.0 N 2 5 1010.9 - 0.0 - - - - - - -
25/05:30pm 30.5 NW 2 5 1010.6 - 0.0 - - - - - - -
25/05:00pm 31.3 NW 5 9 1010.0 - 0.0 - - - - - - -
25/04:30pm 31.4 NW 4 7 1009.8 - 0.0 - - - - - - -
25/04:00pm 31.2 NW 5 9 1010.0 - 0.0 - - - - - - -
25/03:30pm 32.3 NW 6 11 1009.8 - 0.0 - - - - - - -
25/03:00pm 32.0 NW 5 9 1009.8 - 0.0 - - - - - - -
25/02:30pm 32.5 NNW 5 9 1010.2 - 0.0 - - - - - - -
25/02:00pm 31.5 WNW 5 8 1010.5 - 0.0 - - - - - - -
25/01:30pm 32.0 NW 3 6 1011.0 - 0.0 - - - - - - -
25/01:00pm 32.0 WNW 2 4 1011.4 - 0.0 - - - - - - -
25/12:30pm 33.1 NNE 3 4 1011.8 - 0.0 - - - - - - -
25/12:00pm 33.1 NE 2 5 1012.4 - 0.0 - - - - - - -
25/11:30am 30.6 WSW 2 4 1012.6 - 0.0 - - - - - - -
25/11:00am 29.9 SSW 4 5 1012.9 - 0.0 - - - - - - -
25/10:30am 30.1 SW 5 7 1013.1 - 0.0 - - - - - - -
25/10:00am 29.5 SSW 5 6 1013.0 - 0.0 - - - - - - -
25/09:30am 28.8 SSW 3 6 1013.1 - 0.0 - - - - - - -
25/09:00am 28.0 SSE 2 3 1013.1 - 0.0 - - - - - - -
25/08:30am 26.9 SE 1 2 1012.9 - 0.0 - - - - - - -
25/08:00am 25.6 CALM 0 0 1012.7 - 0.0 - - - - - - -
25/07:30am 24.2 CALM 0 0 1012.6 - 0.0 - - - - - - -
25/07:00am 23.6 CALM 0 1 1012.2 - 0.0 - - - - - - -
25/06:30am 23.9 E 1 1 1012.0 - 0.0 - - - - - - -
25/06:00am 23.6 ENE 1 2 1011.6 - 0.0 - - - - - - -

Other Formats:

Comma delimited format used in spreadsheet applications
http://www.bom.gov.au/fwo/IDD60701/IDD60701.94119.axf

JavaScript Object Notation format (JSON) in row-major order
http://www.bom.gov.au/fwo/IDD60701/IDD60701.94119.json